Time;durP1;ratioP1;P1;durP2;ratioP2;P2;SDS_P1;SDS_P2;PMS_P1;PMS_P2;Temp;Humidity;BMP_temperature;BMP_pressure;BME280_temperature;BME280_humidity;BME280_pressure;Samples;Min_cycle;Max_cycle;Signal;HPM_P1;HPM_P2
2023/03/12 00:02:35;;;;;;;;;;;;;;;20.34;50.92;100295.95;2250350;77;51449;-76
2023/03/12 00:05:37;;;;;;;;;;;;;;;20.37;50.83;100300.42;2274619;78;51588;-75
2023/03/12 00:08:39;;;;;;;;;;;;;;;20.42;50.71;100297.09;2250569;78;52726;-75
2023/03/12 00:11:40;;;;;;;;;;;;;;;20.47;50.59;100296.48;2274503;77;50120;-75
2023/03/12 00:14:42;;;;;;;;;;;;;;;20.51;50.48;100291.85;2269764;78;50232;-75
2023/03/12 00:17:43;;;;;;;;;;;;;;;20.51;50.45;100291.03;2274595;77;50027;-75
2023/03/12 00:20:47;;;;;;;;;;;;;;;20.46;50.51;100291.64;2232907;78;51657;-75
2023/03/12 00:23:48;;;;;;;;;;;;;;;20.40;50.55;100289.77;2274777;78;50786;-75
2023/03/12 00:26:50;;;;;;;;;;;;;;;20.33;50.70;100287.59;2266791;78;50343;-75
2023/03/12 00:29:52;;;;;;;;;;;;;;;20.27;50.85;100287.89;2263667;78;50360;-75
2023/03/12 00:32:53;;;;;;;;;;;;;;;20.18;50.98;100291.25;2269594;78;51621;-75
2023/03/12 00:35:55;;;;;;;;;;;;;;;20.13;51.13;100292.38;2269728;78;50326;-75
2023/03/12 00:38:57;;;;;;;;;;;;;;;20.15;51.14;100298.37;2269594;78;51503;-76
2023/03/12 00:41:58;;;;;;;;;;;;;;;20.17;51.11;100294.98;2269495;78;51455;-75
2023/03/12 00:45:00;;;;;;;;;;;;;;;20.20;51.01;100299.95;2287362;77;51558;-76
2023/03/12 00:48:02;;;;;;;;;;;;;;;20.23;50.97;100294.16;2248488;78;50583;-76
2023/03/12 00:51:03;;;;;;;;;;;;;;;20.28;50.88;100296.77;2260596;78;50800;-76
2023/03/12 00:54:05;;;;;;;;;;;;;;;20.32;50.75;100302.03;2254112;78;50067;-76
2023/03/12 00:57:06;;;;;;;;;;;;;;;20.34;50.67;100303.48;2236600;78;51689;-76
2023/03/12 01:00:09;;;;;;;;;;;;;;;20.37;50.63;100302.25;2271301;78;50258;-76
2023/03/12 01:03:11;;;;;;;;;;;;;;;20.38;50.52;100306.09;2271723;78;50711;-76
2023/03/12 01:06:13;;;;;;;;;;;;;;;20.41;50.47;100322.33;2271651;78;52338;-76
2023/03/12 01:09:14;;;;;;;;;;;;;;;20.44;50.38;100319.23;2253988;78;50108;-76
2023/03/12 01:12:16;;;;;;;;;;;;;;;20.48;50.29;100317.80;2279104;78;50628;-76
2023/03/12 01:15:18;;;;;;;;;;;;;;;20.52;50.16;100319.55;2260659;78;51817;-76
2023/03/12 01:18:19;;;;;;;;;;;;;;;20.51;50.14;100317.91;2260695;78;51577;-76
2023/03/12 01:21:21;;;;;;;;;;;;;;;20.45;50.19;100323.59;2232354;78;52347;-76
2023/03/12 01:24:23;;;;;;;;;;;;;;;20.39;50.25;100329.23;2278860;78;51624;-76
2023/03/12 01:27:24;;;;;;;;;;;;;;;20.33;50.43;100327.89;2281860;78;52235;-76
2023/03/12 01:30:26;;;;;;;;;;;;;;;20.25;50.57;100330.77;2275738;77;51500;-76
2023/03/12 01:33:28;;;;;;;;;;;;;;;20.18;50.67;100326.70;2237310;78;51756;-76
2023/03/12 01:36:30;;;;;;;;;;;;;;;20.13;50.81;100329.98;2264642;78;50647;-76
2023/03/12 01:39:31;;;;;;;;;;;;;;;20.14;50.83;100322.75;2288232;78;50464;-76
2023/03/12 01:42:33;;;;;;;;;;;;;;;20.16;50.74;100326.89;2237416;79;50163;-76
2023/03/12 01:45:52;;;;;;;;;;;;;;;20.21;50.67;100330.32;2217027;78;51598;-74
2023/03/12 01:48:55;;;;;;;;;;;;;;;20.25;50.59;100342.86;2270619;78;51448;-74
2023/03/12 01:52:04;;;;;;;;;;;;;;;20.28;50.50;100341.10;2273375;77;51490;-75
2023/03/12 01:55:10;;;;;;;;;;;;;;;20.33;50.39;100346.70;2289028;77;50280;-73
2023/03/12 01:58:12;;;;;;;;;;;;;;;20.36;50.27;100349.80;2248750;77;50993;-74
2023/03/12 02:01:14;;;;;;;;;;;;;;;20.41;50.16;100349.20;2251454;78;51424;-75
2023/03/12 02:04:16;;;;;;;;;;;;;;;20.43;50.10;100347.97;2267945;77;51478;-75
2023/03/12 02:07:17;;;;;;;;;;;;;;;20.47;49.99;100357.78;2251315;79;50712;-74
2023/03/12 02:10:19;;;;;;;;;;;;;;;20.49;49.94;100344.98;2192980;79;52448;-74
2023/03/12 02:13:20;;;;;;;;;;;;;;;20.53;49.81;100358.86;2251462;79;50636;-74
2023/03/12 02:16:22;;;;;;;;;;;;;;;20.57;49.73;100360.13;2252828;77;51357;-76
2023/03/12 02:19:31;;;;;;;;;;;;;;;20.58;49.67;100368.52;2288929;77;51484;-76
2023/03/12 02:22:34;;;;;;;;;;;;;;;20.59;49.63;100368.81;2258996;77;51009;-76
2023/03/12 02:25:43;;;;;;;;;;;;;;;20.57;49.58;100371.69;2288441;77;50739;-76
2023/03/12 02:28:45;;;;;;;;;;;;;;;20.52;49.68;100375.47;2260915;77;50658;-75
2023/03/12 02:31:48;;;;;;;;;;;;;;;20.43;49.83;100373.49;2252451;79;50273;-76
2023/03/12 02:34:50;;;;;;;;;;;;;;;20.37;49.94;100370.77;2231589;77;52447;-75
2023/03/12 02:37:52;;;;;;;;;;;;;;;20.29;50.14;100375.81;2284005;77;51538;-75
2023/03/12 02:40:54;;;;;;;;;;;;;;;20.21;50.30;100376.81;2279972;77;50810;-76
2023/03/12 02:44:03;;;;;;;;;;;;;;;20.20;50.37;100390.46;2253840;78;50636;-75
2023/03/12 02:47:04;;;;;;;;;;;;;;;20.18;50.42;100383.94;2192205;79;50168;-76
2023/03/12 02:50:06;;;;;;;;;;;;;;;20.21;50.38;100397.48;2209902;79;51347;-76
2023/03/12 02:53:08;;;;;;;;;;;;;;;20.23;50.31;100393.56;2214369;79;51430;-75
2023/03/12 02:56:09;;;;;;;;;;;;;;;20.27;50.24;100403.41;2216312;78;50623;-75
2023/03/12 02:59:12;;;;;;;;;;;;;;;20.30;50.19;100403.02;2176420;79;51039;-76
2023/03/12 03:02:13;;;;;;;;;;;;;;;20.35;50.06;100398.38;2262467;78;51505;-76
2023/03/12 03:05:15;;;;;;;;;;;;;;;20.39;50.00;100407.69;2266338;78;50701;-75
2023/03/12 03:08:17;;;;;;;;;;;;;;;20.42;49.87;100408.12;2260651;78;50685;-75
2023/03/12 03:11:23;;;;;;;;;;;;;;;20.47;49.78;100407.50;2192499;79;50873;-76
2023/03/12 03:14:22;;;;;;;;;;;;;;;20.52;49.68;100412.28;2211130;80;22515;-75
2023/03/12 03:17:24;;;;;;;;;;;;;;;20.53;49.55;100410.75;2224622;79;50690;-76
2023/03/12 03:20:25;;;;;;;;;;;;;;;20.51;49.59;100406.08;2264894;78;50685;-76
2023/03/12 03:23:27;;;;;;;;;;;;;;;20.42;49.70;100409.48;2218553;79;51037;-75
2023/03/12 03:26:28;;;;;;;;;;;;;;;20.38;49.79;100420.82;2220355;80;50075;-76
2023/03/12 03:29:30;;;;;;;;;;;;;;;20.31;49.90;100422.64;2202414;79;50636;-76
2023/03/12 03:32:31;;;;;;;;;;;;;;;20.22;50.11;100425.50;2245027;79;50699;-76
2023/03/12 03:35:34;;;;;;;;;;;;;;;20.15;50.24;100428.66;2200992;80;52707;-76
2023/03/12 03:38:35;;;;;;;;;;;;;;;20.13;50.33;100438.77;2240296;79;51660;-76
2023/03/12 03:41:37;;;;;;;;;;;;;;;20.12;50.34;100437.13;2251745;79;50286;-75
2023/03/12 03:44:38;;;;;;;;;;;;;;;20.13;50.34;100437.95;2203754;77;50091;-76
2023/03/12 03:47:40;;;;;;;;;;;;;;;20.15;50.27;100435.38;2208870;78;51642;-76
2023/03/12 03:50:41;;;;;;;;;;;;;;;20.18;50.21;100436.84;2262118;78;50371;-75
2023/03/12 03:53:43;;;;;;;;;;;;;;;20.21;50.14;100438.60;2261644;78;50812;-75
2023/03/12 03:56:45;;;;;;;;;;;;;;;20.23;50.10;100436.55;2262711;78;50465;-76
2023/03/12 03:59:46;;;;;;;;;;;;;;;20.27;50.03;100440.18;2225566;78;51649;-76
2023/03/12 04:02:48;;;;;;;;;;;;;;;20.30;49.93;100437.94;2267612;78;51532;-76
2023/03/12 04:05:57;;;;;;;;;;;;;;;20.33;49.85;100448.80;2264863;78;49623;-76
2023/03/12 04:08:59;;;;;;;;;;;;;;;20.37;49.78;100458.11;2264444;78;50638;-76
2023/03/12 04:12:00;;;;;;;;;;;;;;;20.39;49.72;100458.75;2214519;78;53177;-76
2023/03/12 04:15:02;;;;;;;;;;;;;;;20.42;49.66;100463.22;2269122;78;50602;-76
2023/03/12 04:18:04;;;;;;;;;;;;;;;20.46;49.56;100458.27;2277052;78;51475;-76
2023/03/12 04:21:06;;;;;;;;;;;;;;;20.49;49.49;100463.23;2241755;78;50209;-74
2023/03/12 04:24:08;;;;;;;;;;;;;;;20.52;49.41;100464.70;2238739;78;52316;-76
2023/03/12 04:27:09;;;;;;;;;;;;;;;20.48;49.44;100466.97;2269898;78;51457;-76
2023/03/12 04:30:11;;;;;;;;;;;;;;;20.43;49.51;100466.73;2245949;78;51347;-76
2023/03/12 04:33:13;;;;;;;;;;;;;;;20.36;49.63;100467.21;2248935;78;50262;-76
2023/03/12 04:36:15;;;;;;;;;;;;;;;20.30;49.83;100472.05;2249110;78;50051;-76
2023/03/12 04:39:18;;;;;;;;;;;;;;;20.21;49.90;100470.84;2275987;78;51634;-76
2023/03/12 04:42:19;;;;;;;;;;;;;;;20.15;50.05;100475.67;2269798;78;49975;-76
2023/03/12 04:45:21;;;;;;;;;;;;;;;20.15;50.13;100477.02;2270044;78;50737;-76
2023/03/12 04:48:22;;;;;;;;;;;;;;;20.16;50.06;100474.63;2220973;78;51557;-77
2023/03/12 04:51:24;;;;;;;;;;;;;;;20.19;50.00;100479.64;2276900;78;51425;-76
2023/03/12 04:54:25;;;;;;;;;;;;;;;20.25;49.88;100484.73;2250676;78;51440;-76
2023/03/12 04:57:27;;;;;;;;;;;;;;;20.28;49.80;100481.64;2259311;78;50614;-76
2023/03/12 05:00:29;;;;;;;;;;;;;;;20.32;49.73;100483.41;2227713;79;52733;-75
2023/03/12 05:03:30;;;;;;;;;;;;;;;20.34;49.65;100479.48;2251127;79;50209;-75
2023/03/12 05:06:32;;;;;;;;;;;;;;;20.36;49.61;100484.67;2250974;79;51497;-75
2023/03/12 05:09:34;;;;;;;;;;;;;;;20.36;49.56;100487.36;2250734;78;51491;-75
2023/03/12 05:12:35;;;;;;;;;;;;;;;20.39;49.48;100498.53;2227719;79;50209;-75
2023/03/12 05:15:37;;;;;;;;;;;;;;;20.43;49.41;100494.95;2254737;78;50065;-76
2023/03/12 05:18:40;;;;;;;;;;;;;;;20.46;49.35;100501.27;2260595;78;50734;-76
2023/03/12 05:21:41;;;;;;;;;;;;;;;20.49;49.27;100498.17;2250453;78;50653;-75
2023/03/12 05:24:43;;;;;;;;;;;;;;;20.55;49.13;100501.46;2215897;78;51766;-75
2023/03/12 05:27:45;;;;;;;;;;;;;;;20.58;49.06;100497.02;2251094;79;50712;-75
2023/03/12 05:30:46;;;;;;;;;;;;;;;20.55;49.05;100496.58;2250974;79;50398;-75
2023/03/12 05:33:48;;;;;;;;;;;;;;;20.49;49.12;100497.35;2251117;79;50374;-75
2023/03/12 05:36:49;;;;;;;;;;;;;;;20.42;49.28;100508.05;2215271;79;51691;-75
2023/03/12 05:39:53;;;;;;;;;;;;;;;20.33;49.44;100496.66;2238941;78;49624;-76
2023/03/12 05:42:54;;;;;;;;;;;;;;;20.25;49.56;100499.50;2251281;79;51539;-75
2023/03/12 05:46:02;;;;;;;;;;;;;;;20.19;49.73;100497.10;2245310;78;51556;-75
2023/03/12 05:49:04;;;;;;;;;;;;;;;20.19;49.78;100498.44;2221079;78;49629;-76
2023/03/12 05:52:05;;;;;;;;;;;;;;;20.21;49.74;100503.08;2233416;77;52577;-76
2023/03/12 05:55:07;;;;;;;;;;;;;;;20.23;49.68;100498.34;2290410;77;50213;-75
2023/03/12 05:58:09;;;;;;;;;;;;;;;20.26;49.64;100503.02;2289957;77;50370;-76
2023/03/12 06:01:15;;;;;;;;;;;;;;;20.29;49.58;100512.84;2264421;77;51155;-75
2023/03/12 06:04:16;;;;;;;;;;;;;;;20.33;49.49;100506.58;2255101;77;50735;-75
2023/03/12 06:07:18;;;;;;;;;;;;;;;20.36;49.42;100512.89;2223044;79;50693;-76
2023/03/12 06:10:19;;;;;;;;;;;;;;;20.40;49.34;100507.45;2244930;77;50667;-75
2023/03/12 06:13:21;;;;;;;;;;;;;;;20.42;49.27;100509.41;2247658;79;50068;-75
2023/03/12 06:16:24;;;;;;;;;;;;;;;20.44;49.22;100505.48;2282999;77;50013;-75
2023/03/12 06:19:26;;;;;;;;;;;;;;;20.45;49.21;100509.03;2253059;78;51439;-75
2023/03/12 06:22:28;;;;;;;;;;;;;;;20.48;49.17;100513.17;2252888;77;51396;-76
2023/03/12 06:25:29;;;;;;;;;;;;;;;20.50;49.09;100510.61;2235931;77;52664;-76
2023/03/12 06:28:31;;;;;;;;;;;;;;;20.55;49.03;100514.05;2290496;77;51455;-74
2023/03/12 06:31:33;;;;;;;;;;;;;;;20.60;48.92;100523.20;2290653;77;51386;-75
2023/03/12 06:34:34;;;;;;;;;;;;;;;20.66;48.88;100517.02;2289468;77;52357;-75
2023/03/12 06:37:36;;;;;;;;;;;;;;;20.68;48.87;100510.59;2241264;77;51757;-74
2023/03/12 06:40:38;;;;;;;;;;;;;;;20.68;48.90;100520.86;2290473;77;50716;-74
2023/03/12 06:43:40;;;;;;;;;;;;;;;20.65;48.97;100517.20;2290776;77;50077;-74
2023/03/12 06:46:43;;;;;;;;;;;;;;;20.61;49.10;100526.19;2290237;77;50309;-75
2023/03/12 06:49:44;;;;;;;;;;;;;;;20.58;49.19;100527.94;2261846;77;51805;-76
2023/03/12 06:52:46;;;;;;;;;;;;;;;20.54;49.32;100532.04;2290372;77;51541;-75
2023/03/12 06:55:49;;;;;;;;;;;;;;;20.54;49.35;100533.38;2273964;77;50640;-75
2023/03/12 06:58:50;;;;;;;;;;;;;;;20.60;49.23;100533.09;2248985;77;50368;-75
2023/03/12 07:01:52;;;;;;;;;;;;;;;20.62;49.22;100532.39;2208967;78;51250;-75
2023/03/12 07:04:54;;;;;;;;;;;;;;;20.69;49.08;100531.91;2273540;78;51558;-75
2023/03/12 07:07:55;;;;;;;;;;;;;;;20.76;48.91;100530.61;2273404;78;51521;-75
2023/03/12 07:10:59;;;;;;;;;;;;;;;20.79;48.75;100532.37;2273532;77;51538;-75
2023/03/12 07:14:00;;;;;;;;;;;;;;;20.84;48.74;100531.26;2232976;77;52538;-75
2023/03/12 07:17:03;;;;;;;;;;;;;;;20.96;48.58;100538.25;2290551;77;50345;-75
2023/03/12 07:20:04;;;;;;;;;;;;;;;21.01;48.37;100529.02;2269703;77;50836;-76
2023/03/12 07:23:06;;;;;;;;;;;;;;;21.04;48.29;100531.83;2260217;77;50108;-75
2023/03/12 07:26:08;;;;;;;;;;;;;;;21.01;48.34;100539.78;2243436;77;51759;-75
2023/03/12 07:29:09;;;;;;;;;;;;;;;20.97;48.41;100537.20;2286800;77;50648;-76
2023/03/12 07:32:11;;;;;;;;;;;;;;;20.91;48.50;100541.20;2286348;77;50713;-76
2023/03/12 07:35:12;;;;;;;;;;;;;;;20.83;48.63;100541.71;2266363;78;52102;-75
2023/03/12 07:38:14;;;;;;;;;;;;;;;20.76;48.73;100538.68;2244228;78;51380;-75
2023/03/12 07:41:16;;;;;;;;;;;;;;;20.70;48.84;100546.18;2275853;77;51431;-75
2023/03/12 07:44:17;;;;;;;;;;;;;;;20.66;48.96;100556.52;2266151;78;50065;-75
2023/03/12 07:47:19;;;;;;;;;;;;;;;20.66;49.05;100555.99;2241424;77;50328;-74
2023/03/12 07:50:20;;;;;;;;;;;;;;;20.69;49.00;100553.94;2210241;77;51122;-74
2023/03/12 07:53:22;;;;;;;;;;;;;;;20.71;48.95;100558.09;2276253;77;51497;-74
2023/03/12 07:56:24;;;;;;;;;;;;;;;20.76;48.86;100550.78;2244936;77;51447;-75
2023/03/12 07:59:26;;;;;;;;;;;;;;;20.80;48.74;100547.98;2277135;77;50200;-75
2023/03/12 08:02:28;;;;;;;;;;;;;;;20.83;48.66;100554.30;2219316;78;51909;-76
2023/03/12 08:05:29;;;;;;;;;;;;;;;20.85;48.59;100559.80;2279184;77;51468;-73
2023/03/12 08:08:31;;;;;;;;;;;;;;;20.90;48.55;100550.31;2309174;77;51487;-74
2023/03/12 08:11:33;;;;;;;;;;;;;;;20.95;48.48;100553.23;2309536;77;50676;-75
2023/03/12 08:14:34;;;;;;;;;;;;;;;20.98;48.41;100555.51;2232087;78;51367;-73
2023/03/12 08:17:36;;;;;;;;;;;;;;;21.04;48.24;100561.41;2278344;78;50397;-73
2023/03/12 08:20:38;;;;;;;;;;;;;;;21.04;48.17;100565.45;2260727;77;50289;-74
2023/03/12 08:23:39;;;;;;;;;;;;;;;21.02;48.23;100568.88;2262999;78;50365;-73
2023/03/12 08:26:41;;;;;;;;;;;;;;;20.96;48.30;100571.02;2208785;77;51525;-74
2023/03/12 08:29:42;;;;;;;;;;;;;;;20.89;48.42;100573.69;2272636;77;52381;-73
2023/03/12 08:32:44;;;;;;;;;;;;;;;20.80;48.54;100568.16;2263573;78;51560;-73
2023/03/12 08:35:46;;;;;;;;;;;;;;;20.73;48.71;100574.01;2275937;77;51524;-74
2023/03/12 08:38:47;;;;;;;;;;;;;;;20.65;48.85;100573.17;2267762;76;51116;-74
2023/03/12 08:41:50;;;;;;;;;;;;;;;20.64;48.93;100575.52;2270778;77;50621;-74
2023/03/12 08:44:52;;;;;;;;;;;;;;;20.67;48.88;100574.30;2242750;78;51511;-74
2023/03/12 08:47:53;;;;;;;;;;;;;;;20.71;48.81;100569.37;2267401;78;50708;-74
2023/03/12 08:50:55;;;;;;;;;;;;;;;20.74;48.74;100560.90;2239201;77;51137;-73
2023/03/12 08:53:57;;;;;;;;;;;;;;;20.77;48.60;100561.31;2227721;79;51419;-75
2023/03/12 08:56:59;;;;;;;;;;;;;;;20.81;48.53;100562.59;2251643;79;50299;-74
2023/03/12 09:00:03;;;;;;;;;;;;;;;20.87;48.48;100559.61;2259850;77;50671;-74
2023/03/12 09:03:04;;;;;;;;;;;;;;;20.91;48.34;100556.84;2249328;77;51228;-74
2023/03/12 09:06:08;;;;;;;;;;;;;;;20.95;48.28;100558.61;2289338;77;51412;-75
2023/03/12 09:09:10;;;;;;;;;;;;;;;20.98;48.20;100559.55;2289028;77;50730;-75
2023/03/12 09:12:11;;;;;;;;;;;;;;;20.98;48.12;100552.30;2289118;77;50119;-74
2023/03/12 09:15:13;;;;;;;;;;;;;;;20.95;48.19;100558.61;2263605;77;51612;-74
2023/03/12 09:18:15;;;;;;;;;;;;;;;20.89;48.28;100566.97;2288663;77;50266;-74
2023/03/12 09:21:16;;;;;;;;;;;;;;;20.79;48.41;100554.41;2258698;77;51567;-75
2023/03/12 09:24:18;;;;;;;;;;;;;;;20.72;48.56;100547.64;2281556;77;49905;-74
2023/03/12 09:27:20;;;;;;;;;;;;;;;20.63;48.73;100552.36;2246088;77;51191;-74
2023/03/12 09:30:25;;;;;;;;;;;;;;;20.58;48.85;100550.79;2271089;77;50589;-74
2023/03/12 09:33:24;;;;;;;;;;;;;;;20.56;48.89;100552.84;2222242;79;22487;-74
2023/03/12 09:36:26;;;;;;;;;;;;;;;20.57;48.89;100544.25;2229796;77;51588;-75
2023/03/12 09:39:28;;;;;;;;;;;;;;;20.60;48.84;100540.67;2221060;79;52405;-75
2023/03/12 09:42:31;;;;;;;;;;;;;;;20.64;48.76;100549.16;2251645;79;51543;-74
2023/03/12 09:45:34;;;;;;;;;;;;;;;20.66;48.74;100550.62;2253379;79;51594;-74
2023/03/12 09:48:36;;;;;;;;;;;;;;;20.70;48.65;100543.49;2235646;78;51421;-74
2023/03/12 09:51:41;;;;;;;;;;;;;;;20.73;48.59;100543.94;2205487;79;51453;-75
2023/03/12 09:54:56;;;;;;;;;;;;;;;20.76;48.53;100541.37;2239095;79;50227;-75
2023/03/12 09:57:58;;;;;;;;;;;;;;;20.80;48.46;100548.81;2239045;78;50774;-75
2023/03/12 10:01:01;;;;;;;;;;;;;;;20.86;48.33;100545.34;2241217;78;51407;-74
2023/03/12 10:04:21;;;;;;;;;;;;;;;20.90;48.25;100552.48;2180610;80;50988;-74
2023/03/12 10:07:36;;;;;;;;;;;;;;;20.94;48.15;100528.20;2233652;78;50838;-74
2023/03/12 10:10:44;;;;;;;;;;;;;;;20.94;48.12;100529.55;2242883;77;51583;-75
2023/03/12 10:13:50;;;;;;;;;;;;;;;20.90;48.22;100528.27;2225111;78;50426;-75
2023/03/12 10:16:53;;;;;;;;;;;;;;;20.82;48.33;100519.04;2207126;78;51726;-75
2023/03/12 10:20:09;;;;;;;;;;;;;;;20.76;48.46;100526.58;2256164;78;51495;-75
2023/03/12 10:23:26;;;;;;;;;;;;;;;20.69;48.61;100524.37;2247427;78;50684;-75
2023/03/12 10:26:30;;;;;;;;;;;;;;;20.59;48.78;100514.80;2253772;78;22394;-73
2023/03/12 10:29:33;;;;;;;;;;;;;;;20.56;48.92;100510.34;2227489;78;52690;-74
2023/03/12 10:32:39;;;;;;;;;;;;;;;20.58;48.88;100515.02;2222616;80;51570;-73
2023/03/12 10:35:40;;;;;;;;;;;;;;;20.61;48.72;100506.03;2244675;78;51682;-74
2023/03/12 10:38:42;;;;;;;;;;;;;;;20.54;46.26;100491.72;2234319;78;50579;-74
2023/03/12 10:41:44;;;;;;;;;;;;;;;20.52;45.75;100498.30;2206191;78;51201;-74
2023/03/12 10:44:50;;;;;;;;;;;;;;;20.53;45.57;100488.70;2248160;78;51490;-73
2023/03/12 10:47:56;;;;;;;;;;;;;;;20.55;45.69;100497.43;2266353;77;50763;-76
2023/03/12 10:51:00;;;;;;;;;;;;;;;20.58;45.78;100501.58;2272608;77;22470;-73
2023/03/12 10:54:02;;;;;;;;;;;;;;;20.59;45.82;100490.61;2206399;79;52558;-73
2023/03/12 10:57:03;;;;;;;;;;;;;;;20.62;45.94;100472.73;2255487;77;51462;-74
2023/03/12 11:00:10;;;;;;;;;;;;;;;20.67;45.97;100486.92;2274048;77;50755;-74
2023/03/12 11:03:11;;;;;;;;;;;;;;;20.70;46.04;100479.78;2267843;77;22370;-72
2023/03/12 11:06:26;;;;;;;;;;;;;;;20.74;46.12;100473.51;2260087;78;52562;-74
2023/03/12 11:09:28;;;;;;;;;;;;;;;20.77;46.17;100456.97;2286621;77;51556;-72
2023/03/12 11:12:34;;;;;;;;;;;;;;;20.81;46.16;100462.27;2256138;77;51512;-73
2023/03/12 11:15:37;;;;;;;;;;;;;;;20.78;46.27;100453.23;2270816;77;50358;-72
2023/03/12 11:18:39;;;;;;;;;;;;;;;20.72;46.45;100458.91;2249392;78;52155;-74
2023/03/12 11:21:40;;;;;;;;;;;;;;;20.65;46.65;100452.19;2274494;77;50111;-72
2023/03/12 11:24:55;;;;;;;;;;;;;;;20.57;46.87;100452.34;2253557;78;50242;-73
2023/03/12 11:27:58;;;;;;;;;;;;;;;20.51;47.08;100440.20;2256328;78;50412;-73
2023/03/12 11:31:00;;;;;;;;;;;;;;;20.42;47.35;100447.09;2252372;78;51199;-73
2023/03/12 11:34:05;;;;;;;;;;;;;;;20.43;47.47;100446.06;2274151;78;50667;-74
2023/03/12 11:37:15;;;;;;;;;;;;;;;20.47;47.49;100443.78;2265669;77;51832;-74
2023/03/12 11:40:18;;;;;;;;;;;;;;;20.53;47.47;100445.69;2275039;77;50225;-75
2023/03/12 11:43:27;;;;;;;;;;;;;;;20.58;47.40;100429.00;2250830;78;51167;-74
2023/03/12 11:46:40;;;;;;;;;;;;;;;20.63;47.37;100425.19;2280327;78;51440;-75
2023/03/12 11:49:58;;;;;;;;;;;;;;;20.68;47.33;100425.91;2256473;78;51486;-74
2023/03/12 11:53:04;;;;;;;;;;;;;;;20.70;47.26;100427.36;2129974;82;50481;-74
2023/03/12 11:56:07;;;;;;;;;;;;;;;20.75;47.25;100420.03;2224011;79;51303;-74
2023/03/12 11:59:20;;;;;;;;;;;;;;;20.77;47.19;100420.67;2266847;78;50257;-73
2023/03/12 12:02:32;;;;;;;;;;;;;;;20.82;47.13;100419.55;2233802;78;52277;-74
2023/03/12 12:05:42;;;;;;;;;;;;;;;20.84;47.11;100415.62;2249277;77;50415;-74
2023/03/12 12:09:00;;;;;;;;;;;;;;;20.80;47.13;100411.66;2239764;77;51257;-73
2023/03/12 12:12:09;;;;;;;;;;;;;;;20.74;47.25;100409.80;2278050;78;50663;-74
2023/03/12 12:15:29;;;;;;;;;;;;;;;20.66;47.42;100398.72;2273118;78;50172;-74
2023/03/12 12:18:48;;;;;;;;;;;;;;;20.59;47.58;100390.32;2212627;78;52537;-73
2023/03/12 12:21:54;;;;;;;;;;;;;;;20.50;47.79;100373.53;2247068;78;49733;-73
2023/03/12 12:25:12;;;;;;;;;;;;;;;20.43;48.07;100365.95;2260684;78;50815;-74
2023/03/12 12:28:32;;;;;;;;;;;;;;;20.43;48.20;100355.20;2274753;78;51455;-73
2023/03/12 12:31:39;;;;;;;;;;;;;;;20.46;48.17;100369.58;2259063;78;50349;-73
2023/03/12 12:34:52;;;;;;;;;;;;;;;20.49;48.16;100354.38;2268295;78;50332;-74
2023/03/12 12:38:01;;;;;;;;;;;;;;;20.52;48.10;100335.16;2238261;78;50143;-74
2023/03/12 12:41:16;;;;;;;;;;;;;;;20.56;48.05;100329.73;2261197;77;50479;-74
2023/03/12 12:44:19;;;;;;;;;;;;;;;20.59;47.99;100329.31;2257972;77;50718;-74
2023/03/12 12:47:34;;;;;;;;;;;;;;;20.63;47.94;100321.17;2290228;76;52377;-73
2023/03/12 12:50:36;;;;;;;;;;;;;;;20.68;47.85;100308.95;2259470;77;52707;-73
2023/03/12 12:53:40;;;;;;;;;;;;;;;20.73;47.78;100314.55;2275744;77;49839;-73
2023/03/12 12:56:43;;;;;;;;;;;;;;;20.78;47.71;100316.10;2283350;77;49992;-75
2023/03/12 13:00:06;;;;;;;;;;;;;;;20.79;47.60;100318.59;2261406;77;50340;-73
2023/03/12 13:03:09;;;;;;;;;;;;;;;20.75;47.63;100313.83;2158457;81;49572;-73
2023/03/12 13:06:11;;;;;;;;;;;;;;;20.68;47.77;100315.67;2199265;80;50299;-73
2023/03/12 13:09:13;;;;;;;;;;;;;;;20.60;47.91;100312.17;2210468;79;50235;-74
2023/03/12 13:12:15;;;;;;;;;;;;;;;20.53;48.03;100313.16;2212923;79;50436;-72
2023/03/12 13:15:30;;;;;;;;;;;;;;;20.45;48.19;100299.40;2197887;79;52554;-73
2023/03/12 13:18:32;;;;;;;;;;;;;;;20.41;48.34;100291.42;2217299;80;50353;-73
2023/03/12 13:21:35;;;;;;;;;;;;;;;20.41;48.41;100287.39;2197063;79;50420;-75
2023/03/12 13:24:44;;;;;;;;;;;;;;;20.45;48.35;100280.59;2213636;79;50815;-73
2023/03/12 13:27:46;;;;;;;;;;;;;;;20.49;48.30;100286.37;2216426;80;50360;-73
2023/03/12 13:30:48;;;;;;;;;;;;;;;20.55;48.19;100287.77;2212788;79;50259;-73
2023/03/12 13:33:50;;;;;;;;;;;;;;;20.56;48.14;100290.75;2231558;79;51536;-73
2023/03/12 13:37:00;;;;;;;;;;;;;;;20.61;48.05;100289.62;2254626;77;51591;-73
2023/03/12 13:40:07;;;;;;;;;;;;;;;20.64;47.97;100275.77;2202319;78;52744;-74
2023/03/12 13:43:15;;;;;;;;;;;;;;;20.69;47.88;100271.64;2253189;77;21698;-74
2023/03/12 13:46:35;;;;;;;;;;;;;;;20.72;47.80;100276.61;2254572;79;51522;-73
2023/03/12 13:49:54;;;;;;;;;;;;;;;20.75;47.75;100272.97;2261131;77;50293;-72
2023/03/12 13:53:04;;;;;;;;;;;;;;;20.78;47.63;100271.73;2264950;76;51276;-73
2023/03/12 13:56:07;;;;;;;;;;;;;;;20.72;47.68;100253.75;2271528;76;50774;-74
2023/03/12 13:59:10;;;;;;;;;;;;;;;20.66;47.80;100257.58;2269522;76;51578;-75
2023/03/12 14:02:13;;;;;;;;;;;;;;;20.57;48.00;100276.80;2275031;77;50312;-73
2023/03/12 14:05:15;;;;;;;;;;;;;;;20.51;48.11;100261.47;2236096;78;51413;-74
2023/03/12 14:08:21;;;;;;;;;;;;;;;20.40;48.29;100261.04;2289495;76;50194;-74
2023/03/12 14:11:33;;;;;;;;;;;;;;;20.36;48.51;100267.02;2274582;77;50267;-73
2023/03/12 14:14:42;;;;;;;;;;;;;;;20.38;48.55;100256.91;2274395;77;50253;-73
2023/03/12 14:17:44;;;;;;;;;;;;;;;20.42;48.48;100246.89;2244778;78;51986;-75
2023/03/12 14:20:47;;;;;;;;;;;;;;;20.44;48.45;100246.14;2261884;77;50411;-74
2023/03/12 14:23:50;;;;;;;;;;;;;;;20.48;48.41;100251.13;2277567;77;50177;-73
2023/03/12 14:26:51;;;;;;;;;;;;;;;20.52;48.30;100248.33;2263412;78;51528;-73
2023/03/12 14:29:54;;;;;;;;;;;;;;;20.54;48.24;100232.34;2233390;76;50985;-73
2023/03/12 14:32:57;;;;;;;;;;;;;;;20.57;48.22;100239.16;2301976;77;50440;-74
2023/03/12 14:36:00;;;;;;;;;;;;;;;20.63;48.13;100237.02;2271828;77;51538;-74
2023/03/12 14:39:12;;;;;;;;;;;;;;;20.67;47.98;100234.20;2277040;77;50343;-74
2023/03/12 14:42:24;;;;;;;;;;;;;;;20.73;47.91;100244.64;2243610;77;52416;-73
2023/03/12 14:45:26;;;;;;;;;;;;;;;20.73;47.82;100251.36;2281546;77;22360;-75
2023/03/12 14:48:29;;;;;;;;;;;;;;;20.68;47.87;100256.53;2266202;77;50481;-73
2023/03/12 14:51:30;;;;;;;;;;;;;;;20.61;47.95;100249.30;2269245;77;52395;-73
2023/03/12 14:54:32;;;;;;;;;;;;;;;20.54;48.11;100243.09;2238562;78;51206;-73
2023/03/12 14:57:34;;;;;;;;;;;;;;;20.46;48.25;100232.52;2275300;77;50623;-73
2023/03/12 15:00:36;;;;;;;;;;;;;;;20.38;48.38;100222.78;2285824;76;50262;-73
2023/03/12 15:03:41;;;;;;;;;;;;;;;20.33;48.56;100230.64;2272531;78;51524;-73
2023/03/12 15:06:44;;;;;;;;;;;;;;;20.36;48.55;100218.12;2246194;78;50985;-74
2023/03/12 15:09:48;;;;;;;;;;;;;;;20.41;48.47;100210.80;2261976;78;51502;-73
2023/03/12 15:12:50;;;;;;;;;;;;;;;20.45;48.35;100194.06;2273551;78;22427;-72
2023/03/12 15:15:52;;;;;;;;;;;;;;;20.49;48.29;100203.05;2264343;78;51555;-74
2023/03/12 15:18:54;;;;;;;;;;;;;;;20.53;48.20;100201.09;2255312;77;51716;-74
2023/03/12 15:21:55;;;;;;;;;;;;;;;20.55;48.16;100190.16;2269862;78;51539;-72
2023/03/12 15:24:59;;;;;;;;;;;;;;;20.60;48.09;100191.20;2270325;77;51456;-74
2023/03/12 15:28:01;;;;;;;;;;;;;;;20.64;47.98;100181.67;2277324;77;51421;-74
2023/03/12 15:31:07;;;;;;;;;;;;;;;20.68;47.95;100186.63;2227657;78;51662;-73
2023/03/12 15:34:10;;;;;;;;;;;;;;;20.72;47.84;100182.50;2238218;78;50127;-73
2023/03/12 15:37:40;;;;;;;;;;;;;;;20.73;47.77;100185.48;2280415;77;51555;-74
2023/03/12 15:40:41;;;;;;;;;;;;;;;20.68;47.83;100186.63;2283335;78;50255;-76
2023/03/12 15:43:43;;;;;;;;;;;;;;;20.61;47.93;100177.25;2265271;77;51747;-72